Time;durP1;ratioP1;P1;durP2;ratioP2;P2;SDS_P1;SDS_P2;PMS_P1;PMS_P2;Temp;Humidity;BMP_temperature;BMP_pressure;BME280_temperature;BME280_humidity;BME280_pressure;Samples;Min_cycle;Max_cycle;Signal;HPM_P1;HPM_P2
2023/01/30 00:00:48;;;;;;;24.95;16.00;;;0.20;99.90;;;;;;2042933;29;20542;-70
2023/01/30 00:01:48;;;;;;;23.88;15.88;;;0.20;99.90;;;;;;2042133;29;20035;-70
2023/01/30 00:02:49;;;;;;;25.45;16.38;;;0.20;99.90;;;;;;2040272;29;20114;-70
2023/01/30 00:03:50;;;;;;;25.08;16.30;;;0.20;99.90;;;;;;2042485;29;20113;-70
2023/01/30 00:04:50;;;;;;;25.27;16.10;;;0.20;99.90;;;;;;2042750;29;20481;-70
2023/01/30 00:05:51;;;;;;;24.85;15.95;;;0.20;99.90;;;;;;2034172;29;20032;-70
2023/01/30 00:06:52;;;;;;;25.08;15.82;;;0.30;99.90;;;;;;2032255;29;20035;-69
2023/01/30 00:07:52;;;;;;;25.70;16.42;;;0.30;99.90;;;;;;2035002;29;20047;-70
2023/01/30 00:08:53;;;;;;;24.70;15.50;;;0.30;99.90;;;;;;2034206;29;20250;-70
2023/01/30 00:09:54;;;;;;;24.38;15.93;;;0.30;99.90;;;;;;2035792;29;20031;-70
2023/01/30 00:10:54;;;;;;;24.50;15.88;;;0.30;99.90;;;;;;2038193;29;20031;-70
2023/01/30 00:11:55;;;;;;;23.23;15.70;;;0.30;99.90;;;;;;2034673;28;20039;-71
2023/01/30 00:12:55;;;;;;;24.25;16.02;;;0.30;99.90;;;;;;2042971;29;20031;-71
2023/01/30 00:13:56;;;;;;;23.45;15.55;;;0.30;99.90;;;;;;2042931;28;20477;-70
2023/01/30 00:14:56;;;;;;;23.13;15.25;;;0.30;99.90;;;;;;2048609;28;20035;-70
2023/01/30 00:15:57;;;;;;;25.48;16.05;;;0.40;99.90;;;;;;2043341;28;20031;-71
2023/01/30 00:16:57;;;;;;;24.67;16.40;;;0.30;99.90;;;;;;2042864;29;20027;-71
2023/01/30 00:17:58;;;;;;;26.00;16.02;;;0.40;99.90;;;;;;2042830;29;20035;-70
2023/01/30 00:18:59;;;;;;;25.60;16.00;;;0.40;99.90;;;;;;2044784;29;20054;-70
2023/01/30 00:19:59;;;;;;;26.30;15.85;;;0.30;99.90;;;;;;2042881;29;20036;-71
2023/01/30 00:21:03;;;;;;;24.75;15.88;;;0.40;99.90;;;;;;2032697;29;20031;-71
2023/01/30 00:22:03;;;;;;;26.40;16.35;;;0.30;99.90;;;;;;2031344;29;20046;-69
2023/01/30 00:23:04;;;;;;;24.98;15.85;;;0.40;99.90;;;;;;2039323;29;20078;-69
2023/01/30 00:24:05;;;;;;;24.65;15.45;;;0.40;99.90;;;;;;2044580;29;20078;-69
2023/01/30 00:25:06;;;;;;;24.48;16.00;;;0.40;99.90;;;;;;2042883;29;20415;-69
2023/01/30 00:26:07;;;;;;;24.13;15.52;;;0.40;99.90;;;;;;2044955;28;20038;-70
2023/01/30 00:27:07;;;;;;;26.23;16.60;;;0.40;99.90;;;;;;2038403;29;20043;-69
2023/01/30 00:28:09;;;;;;;24.90;15.82;;;0.40;99.90;;;;;;2044516;29;20027;-70
2023/01/30 00:29:10;;;;;;;23.65;15.27;;;0.40;99.90;;;;;;2034098;29;20481;-70
2023/01/30 00:30:11;;;;;;;24.52;16.45;;;0.40;99.90;;;;;;2033018;29;20487;-70
2023/01/30 00:31:11;;;;;;;23.92;15.18;;;0.40;99.90;;;;;;2042078;29;20023;-70
2023/01/30 00:32:12;;;;;;;24.70;16.25;;;0.40;99.90;;;;;;2035888;29;20082;-71
2023/01/30 00:33:15;;;;;;;23.88;15.88;;;0.40;99.90;;;;;;2032955;29;20044;-70
2023/01/30 00:34:15;;;;;;;23.48;15.63;;;0.40;99.90;;;;;;2038712;29;20106;-69
2023/01/30 00:35:16;;;;;;;25.85;16.42;;;0.40;99.90;;;;;;2034221;29;20028;-70
2023/01/30 00:36:16;;;;;;;23.52;15.35;;;0.40;99.90;;;;;;2036289;29;20534;-70
2023/01/30 00:37:17;;;;;;;25.40;16.17;;;0.50;99.90;;;;;;2038775;29;20090;-69
2023/01/30 00:38:18;;;;;;;25.00;16.05;;;0.40;99.90;;;;;;2040401;29;20031;-69
2023/01/30 00:39:19;;;;;;;24.77;15.70;;;0.50;99.90;;;;;;2042012;28;20248;-72
2023/01/30 00:40:19;;;;;;;23.38;15.23;;;0.50;99.90;;;;;;2041394;29;20090;-71
2023/01/30 00:41:20;;;;;;;24.65;15.82;;;0.40;99.90;;;;;;2039825;28;20267;-67
2023/01/30 00:47:51;;;;;;;22.52;14.63;;;0.50;99.90;;;;;;2042948;28;20110;-70
2023/01/30 00:48:51;;;;;;;25.42;15.82;;;0.50;99.90;;;;;;2043191;29;20224;-69
2023/01/30 00:49:52;;;;;;;23.88;15.82;;;0.50;99.90;;;;;;2045923;29;20031;-71
2023/01/30 00:50:52;;;;;;;24.02;15.75;;;0.50;99.90;;;;;;2046144;29;20038;-69
2023/01/30 00:51:53;;;;;;;24.13;15.55;;;0.50;99.90;;;;;;2046412;29;20031;-75
2023/01/30 00:52:54;;;;;;;23.77;15.77;;;0.50;99.90;;;;;;2043257;29;20089;-70
2023/01/30 00:53:54;;;;;;;21.65;14.57;;;0.50;99.90;;;;;;2040595;29;20043;-71
2023/01/30 00:54:55;;;;;;;22.75;15.27;;;0.50;99.90;;;;;;2034151;29;20141;-71
2023/01/30 00:55:56;;;;;;;24.67;15.55;;;0.50;99.90;;;;;;2034274;29;20031;-71
2023/01/30 00:56:56;;;;;;;23.48;15.32;;;0.50;99.90;;;;;;2042822;29;20093;-70
2023/01/30 00:57:59;;;;;;;22.80;14.93;;;0.50;99.90;;;;;;2043868;28;20027;-70
2023/01/30 00:58:59;;;;;;;22.10;14.85;;;0.50;99.90;;;;;;2041948;29;20450;-70
2023/01/30 01:00:00;;;;;;;21.77;14.70;;;0.50;99.90;;;;;;2042805;29;20042;-71
2023/01/30 01:01:00;;;;;;;22.77;14.23;;;0.50;99.90;;;;;;2033845;29;20031;-68
2023/01/30 01:02:01;;;;;;;24.10;15.80;;;0.60;99.90;;;;;;2031623;29;20027;-70
2023/01/30 01:03:03;;;;;;;23.02;15.07;;;0.60;99.90;;;;;;2041954;28;20059;-71
2023/01/30 01:04:05;;;;;;;22.50;15.15;;;0.50;99.90;;;;;;2035497;29;20035;-72
2023/01/30 01:05:06;;;;;;;22.52;15.02;;;0.50;99.90;;;;;;2026374;29;20028;-70
2023/01/30 01:06:07;;;;;;;22.95;15.50;;;0.50;99.90;;;;;;2034217;29;20024;-69
2023/01/30 01:07:14;;;;;;;25.17;15.50;;;0.50;99.90;;;;;;2043198;28;20034;-70
2023/01/30 01:08:15;;;;;;;23.35;15.30;;;0.60;99.90;;;;;;2039766;28;20060;-71
2023/01/30 01:09:15;;;;;;;25.48;15.60;;;0.60;99.90;;;;;;2040031;28;20175;-71
2023/01/30 01:10:16;;;;;;;22.92;15.27;;;0.60;99.90;;;;;;2046016;29;20108;-72
2023/01/30 01:11:23;;;;;;;23.42;15.07;;;0.60;99.90;;;;;;2043147;29;20042;-70
2023/01/30 01:12:23;;;;;;;22.15;14.52;;;0.60;99.90;;;;;;2048125;28;20047;-73
2023/01/30 01:13:24;;;;;;;20.95;13.93;;;0.60;99.90;;;;;;2043908;28;20071;-71
2023/01/30 01:14:25;;;;;;;20.15;14.13;;;0.60;99.90;;;;;;2045644;29;20459;-70
2023/01/30 01:15:26;;;;;;;24.73;15.77;;;0.60;99.90;;;;;;2043865;29;20047;-74
2023/01/30 01:16:28;;;;;;;22.95;14.88;;;0.70;99.90;;;;;;2043876;29;20078;-70
2023/01/30 01:17:31;;;;;;;23.70;15.52;;;0.70;99.90;;;;;;2043259;28;20532;-70
2023/01/30 01:18:32;;;;;;;22.05;14.35;;;0.70;99.90;;;;;;2042603;29;20034;-71
2023/01/30 01:19:33;;;;;;;23.73;15.40;;;0.70;99.90;;;;;;2044997;29;20207;-70
2023/01/30 01:20:34;;;;;;;24.70;15.77;;;0.70;99.90;;;;;;2031898;29;20031;-69
2023/01/30 01:21:36;;;;;;;22.08;14.63;;;0.70;99.90;;;;;;2033585;29;20416;-69
2023/01/30 01:22:38;;;;;;;22.90;15.63;;;0.70;99.90;;;;;;2034425;29;20039;-70
2023/01/30 01:23:39;;;;;;;23.55;14.90;;;0.70;99.90;;;;;;2036452;29;20119;-70
2023/01/30 01:24:39;;;;;;;22.63;14.93;;;0.70;99.90;;;;;;2042223;29;20123;-70
2023/01/30 01:25:42;;;;;;;24.15;15.65;;;0.70;99.90;;;;;;2043226;29;20055;-70
2023/01/30 01:26:43;;;;;;;21.45;14.60;;;0.70;99.90;;;;;;2043656;28;20055;-70
2023/01/30 01:27:45;;;;;;;21.70;14.25;;;0.70;99.90;;;;;;2034557;29;20039;-70
2023/01/30 01:28:46;;;;;;;24.02;15.57;;;0.70;99.90;;;;;;2034630;29;20888;-71
2023/01/30 01:29:46;;;;;;;23.40;15.18;;;0.80;99.90;;;;;;2043123;29;20027;-70
2023/01/30 01:30:47;;;;;;;22.65;15.38;;;0.70;99.90;;;;;;2038682;29;20074;-70
2023/01/30 01:31:47;;;;;;;23.23;15.57;;;0.80;99.90;;;;;;2043587;29;20035;-69
2023/01/30 01:32:49;;;;;;;24.20;15.52;;;0.70;99.90;;;;;;2042016;28;20031;-69
2023/01/30 01:33:50;;;;;;;23.10;14.73;;;0.80;99.90;;;;;;2040661;29;20027;-70
2023/01/30 01:34:52;;;;;;;25.17;16.02;;;0.70;99.90;;;;;;2040056;28;20027;-69
2023/01/30 01:35:57;;;;;;;21.85;14.80;;;0.70;99.90;;;;;;2043760;28;20154;-69
2023/01/30 01:36:57;;;;;;;23.58;15.52;;;0.70;99.90;;;;;;2033522;29;20035;-70
2023/01/30 01:37:58;;;;;;;22.25;14.80;;;0.70;99.90;;;;;;2033705;29;20197;-70
2023/01/30 01:38:58;;;;;;;22.42;14.93;;;0.70;99.90;;;;;;2033728;29;20024;-71
2023/01/30 01:41:18;;;;;;;24.30;15.00;;;0.80;99.90;;;;;;2042319;29;20479;-70
2023/01/30 01:42:18;;;;;;;23.20;14.95;;;0.80;99.90;;;;;;2042244;29;20029;-69
2023/01/30 01:43:22;;;;;;;20.55;13.77;;;0.80;99.90;;;;;;2041871;29;20031;-69
2023/01/30 01:44:24;;;;;;;23.95;15.00;;;0.80;99.90;;;;;;2044214;29;20034;-70
2023/01/30 01:45:24;;;;;;;24.35;15.18;;;0.80;99.90;;;;;;2037080;29;20039;-70
2023/01/30 01:46:29;;;;;;;22.30;14.93;;;0.80;99.90;;;;;;2032189;29;20572;-70
2023/01/30 01:47:33;;;;;;;20.95;13.85;;;0.80;99.90;;;;;;2031296;29;20689;-70
2023/01/30 01:48:43;;;;;;;23.13;14.98;;;0.80;99.90;;;;;;2038534;28;20047;-70
2023/01/30 01:49:45;;;;;;;24.48;15.48;;;0.80;99.90;;;;;;2042253;29;20091;-70
2023/01/30 01:51:01;;;;;;;23.73;15.45;;;0.80;99.90;;;;;;2042281;29;20439;-70
2023/01/30 01:52:15;;;;;;;22.90;15.20;;;0.80;99.90;;;;;;2042259;29;20119;-71
2023/01/30 01:53:20;;;;;;;22.40;14.85;;;0.80;99.90;;;;;;2041999;29;20038;-70
2023/01/30 01:54:40;;;;;;;25.70;16.00;;;0.80;99.90;;;;;;2042287;29;20038;-69
2023/01/30 01:55:43;;;;;;;26.05;16.10;;;0.80;99.90;;;;;;2029186;29;20095;-69
2023/01/30 01:56:47;;;;;;;23.60;15.60;;;0.70;99.90;;;;;;2034131;29;20036;-80
2023/01/30 01:57:54;;;;;;;24.25;15.63;;;0.70;99.90;;;;;;2044650;28;20038;-78
2023/01/30 01:58:59;;;;;;;24.67;15.95;;;0.70;99.90;;;;;;2039023;29;20034;-68
2023/01/30 02:00:09;;;;;;;25.10;15.63;;;0.70;99.90;;;;;;2042264;28;20027;-80
2023/01/30 02:01:18;;;;;;;24.95;15.02;;;0.70;99.90;;;;;;2044190;29;20039;-82
2023/01/30 02:02:20;;;;;;;24.33;15.60;;;0.70;99.90;;;;;;2034647;29;20031;-81
2023/01/30 02:03:24;;;;;;;25.23;16.02;;;0.70;99.90;;;;;;2034370;29;20066;-84
2023/01/30 02:05:51;;;;;;;25.75;15.52;;;0.70;99.90;;;;;;2037025;28;20050;-82
2023/01/30 02:06:52;;;;;;;24.27;15.88;;;0.70;99.90;;;;;;2034196;29;20035;-82
2023/01/30 02:08:32;;;;;;;25.40;16.13;;;0.60;99.90;;;;;;2026194;29;20389;-83
2023/01/30 02:09:33;;;;;;;24.73;15.40;;;0.70;99.90;;;;;;1999791;29;20037;-84
2023/01/30 02:10:58;;;;;;;25.98;15.93;;;0.60;99.90;;;;;;2003520;29;20041;-79
2023/01/30 02:12:02;;;;;;;28.70;16.70;;;0.60;99.90;;;;;;2022612;28;20537;-81
2023/01/30 02:13:02;;;;;;;25.83;16.30;;;0.60;99.90;;;;;;2037257;29;20047;-81
2023/01/30 02:14:04;;;;;;;27.67;16.67;;;0.60;99.90;;;;;;2037272;28;20533;-82
2023/01/30 02:15:06;;;;;;;25.23;16.10;;;0.60;99.90;;;;;;2042311;29;20038;-82
2023/01/30 02:16:08;;;;;;;25.95;15.80;;;0.60;99.90;;;;;;2044432;29;20356;-84
2023/01/30 02:17:09;;;;;;;24.85;16.15;;;0.60;99.90;;;;;;2031675;29;20035;-83
2023/01/30 02:18:10;;;;;;;24.25;16.38;;;0.60;99.90;;;;;;2031148;29;20050;-81
2023/01/30 02:19:40;;;;;;;24.73;15.60;;;0.60;99.90;;;;;;2043696;28;20031;-82
2023/01/30 02:21:16;;;;;;;24.02;15.25;;;0.60;99.90;;;;;;2028360;29;20585;-81
2023/01/30 02:22:55;;;;;;;24.85;15.80;;;0.60;99.90;;;;;;2029652;29;20103;-82
2023/01/30 02:24:39;;;;;;;24.60;15.55;;;0.70;99.90;;;;;;2028451;29;20088;-82
2023/01/30 02:26:14;;;;;;;23.67;14.93;;;0.70;99.90;;;;;;2037775;29;20046;-83
2023/01/30 02:27:23;;;;;;;23.33;14.20;;;0.80;99.90;;;;;;2032675;29;20032;-80
2023/01/30 02:29:01;;;;;;;24.65;15.32;;;0.70;99.90;;;;;;2038918;29;20130;-83
2023/01/30 02:30:41;;;;;;;23.23;14.95;;;0.80;99.90;;;;;;2041774;28;20027;-85
2023/01/30 02:32:01;;;;;;;24.60;14.80;;;0.80;99.90;;;;;;2035806;29;20515;-84
2023/01/30 02:33:16;;;;;;;22.02;14.60;;;0.80;99.90;;;;;;2039321;29;20015;-82
2023/01/30 02:34:22;;;;;;;24.17;14.57;;;0.80;99.90;;;;;;2046643;29;20051;-83
2023/01/30 02:35:48;;;;;;;23.10;14.93;;;0.90;99.90;;;;;;2042086;29;20067;-82
2023/01/30 02:37:02;;;;;;;25.55;15.43;;;0.90;99.90;;;;;;2037084;29;20035;-82
2023/01/30 02:38:31;;;;;;;23.17;14.77;;;0.90;99.90;;;;;;2035792;29;20143;-82
2023/01/30 02:39:47;;;;;;;22.40;14.43;;;0.90;99.90;;;;;;2040438;29;20039;-83
2023/01/30 02:41:31;;;;;;;23.73;14.88;;;0.90;99.90;;;;;;2041618;28;20038;-80
2023/01/30 02:42:57;;;;;;;21.90;14.18;;;0.90;99.90;;;;;;2038971;28;20059;-80
2023/01/30 02:44:10;;;;;;;22.98;13.88;;;0.90;99.90;;;;;;2041946;28;20031;-80
2023/01/30 02:45:20;;;;;;;23.08;14.80;;;0.90;99.90;;;;;;2034464;28;20118;-80
2023/01/30 02:46:31;;;;;;;28.63;15.35;;;1.00;99.90;;;;;;2035843;29;20098;-80
2023/01/30 02:48:00;;;;;;;24.02;15.18;;;1.00;99.90;;;;;;2037246;29;20091;-83
2023/01/30 02:49:15;;;;;;;22.80;14.35;;;1.00;99.90;;;;;;2042284;29;20039;-86
2023/01/30 02:50:24;;;;;;;23.70;15.10;;;1.00;99.90;;;;;;2041053;29;20444;-80
2023/01/30 02:51:36;;;;;;;24.15;14.57;;;1.00;99.90;;;;;;2030824;29;20040;-80
2023/01/30 02:52:39;;;;;;;23.15;14.73;;;1.10;99.90;;;;;;2037090;29;20032;-83
2023/01/30 02:53:39;;;;;;;21.77;14.35;;;1.10;99.90;;;;;;2038833;29;20031;-70
2023/01/30 02:54:41;;;;;;;22.45;14.75;;;1.10;99.90;;;;;;2039310;28;20662;-69
2023/01/30 02:55:43;;;;;;;23.63;15.05;;;1.10;99.90;;;;;;2041317;28;20027;-70
2023/01/30 02:56:51;;;;;;;21.50;14.35;;;1.10;99.90;;;;;;2031313;29;20193;-70
2023/01/30 02:57:52;;;;;;;22.17;14.73;;;1.10;99.90;;;;;;2026680;29;20547;-70
2023/01/30 02:59:07;;;;;;;23.27;14.68;;;1.10;99.90;;;;;;2035433;29;20024;-70
2023/01/30 03:00:09;;;;;;;23.10;14.75;;;1.20;99.90;;;;;;2040144;29;20444;-70
2023/01/30 03:01:32;;;;;;;21.33;14.30;;;1.20;99.90;;;;;;2039643;28;20042;-69
2023/01/30 03:03:06;;;;;;;20.77;13.80;;;1.20;99.90;;;;;;2041276;28;20050;-70
2023/01/30 03:04:31;;;;;;;22.08;14.38;;;1.20;99.90;;;;;;2025303;29;20477;-70
2023/01/30 03:05:38;;;;;;;21.90;13.48;;;1.30;99.90;;;;;;2033635;28;20032;-70
2023/01/30 03:07:14;;;;;;;22.10;14.88;;;1.30;99.90;;;;;;2042860;28;20494;-69
2023/01/30 03:08:41;;;;;;;22.75;14.25;;;1.30;99.90;;;;;;2023118;29;20530;-70
2023/01/30 03:10:04;;;;;;;23.02;14.38;;;1.30;99.90;;;;;;2030340;29;20090;-70
2023/01/30 03:11:08;;;;;;;21.17;13.57;;;1.30;99.90;;;;;;2030623;29;20157;-69
2023/01/30 03:12:30;;;;;;;21.88;13.68;;;1.30;99.90;;;;;;2035284;29;20434;-71
2023/01/30 03:13:47;;;;;;;22.83;14.20;;;1.40;99.90;;;;;;2031084;29;20106;-70
2023/01/30 03:15:01;;;;;;;21.15;13.85;;;1.40;99.90;;;;;;2026463;29;20040;-70
2023/01/30 03:16:08;;;;;;;21.90;13.80;;;1.40;99.90;;;;;;2033041;29;20620;-70
2023/01/30 03:17:11;;;;;;;20.25;13.20;;;1.40;99.90;;;;;;2038774;28;20028;-71
2023/01/30 03:18:12;;;;;;;21.00;13.10;;;1.40;99.90;;;;;;2033169;29;20060;-71
2023/01/30 03:19:13;;;;;;;20.30;14.07;;;1.50;99.90;;;;;;2033513;29;20027;-69
2023/01/30 03:20:16;;;;;;;20.35;13.52;;;1.50;99.90;;;;;;2033130;29;20558;-70
2023/01/30 03:21:18;;;;;;;18.70;13.02;;;1.50;99.90;;;;;;2035220;29;20043;-70
2023/01/30 03:22:19;;;;;;;20.65;14.00;;;1.50;99.90;;;;;;2041179;28;20067;-69
2023/01/30 03:23:20;;;;;;;18.88;12.88;;;1.50;99.90;;;;;;2033264;29;20447;-69
2023/01/30 03:24:21;;;;;;;20.25;13.57;;;1.50;99.90;;;;;;2035247;29;20091;-71
2023/01/30 03:25:25;;;;;;;20.25;13.23;;;1.50;99.90;;;;;;2037232;29;20531;-72
2023/01/30 03:26:31;;;;;;;21.77;13.50;;;1.60;99.90;;;;;;2037613;29;20027;-71
2023/01/30 03:27:36;;;;;;;21.60;13.35;;;1.60;99.90;;;;;;2036044;29;20023;-71
2023/01/30 03:28:37;;;;;;;19.90;13.35;;;1.60;99.90;;;;;;2038515;29;20087;-72
2023/01/30 03:29:39;;;;;;;20.63;12.93;;;1.60;99.90;;;;;;2034532;29;20092;-70
2023/01/30 03:30:40;;;;;;;19.75;13.10;;;1.60;99.90;;;;;;2027838;29;20028;-73
2023/01/30 03:31:43;;;;;;;20.48;12.90;;;1.70;99.90;;;;;;2030996;29;20491;-71
2023/01/30 03:32:43;;;;;;;18.60;12.68;;;1.70;99.90;;;;;;2034801;29;20032;-71
2023/01/30 03:33:44;;;;;;;19.83;12.68;;;1.70;99.90;;;;;;2036543;29;20031;-70
2023/01/30 03:34:45;;;;;;;20.10;13.15;;;1.60;99.90;;;;;;2042567;28;20098;-70
2023/01/30 03:35:46;;;;;;;20.17;13.05;;;1.70;99.90;;;;;;2042449;28;20027;-70
2023/01/30 03:36:48;;;;;;;20.20;12.68;;;1.70;99.90;;;;;;2041503;28;20131;-70
2023/01/30 03:37:49;;;;;;;19.02;12.38;;;1.70;99.90;;;;;;2026845;29;20112;-70
2023/01/30 03:38:51;;;;;;;19.70;12.98;;;1.70;99.90;;;;;;2028866;29;20032;-70
2023/01/30 03:39:51;;;;;;;19.90;13.05;;;1.70;99.90;;;;;;2034538;29;20115;-70
2023/01/30 03:40:52;;;;;;;20.50;12.75;;;1.70;99.90;;;;;;2026545;29;20060;-71
2023/01/30 03:41:53;;;;;;;20.42;12.85;;;1.70;99.90;;;;;;2026794;29;20448;-70
2023/01/30 03:42:54;;;;;;;19.23;12.05;;;1.70;99.90;;;;;;2020780;29;20033;-70
2023/01/30 03:43:55;;;;;;;20.67;13.30;;;1.60;99.90;;;;;;2026430;29;20024;-70
2023/01/30 03:44:55;;;;;;;18.67;12.48;;;1.60;99.90;;;;;;2029626;29;20038;-70
2023/01/30 03:45:56;;;;;;;19.42;12.35;;;1.70;99.90;;;;;;2034391;29;20032;-70
2023/01/30 03:46:57;;;;;;;20.05;13.10;;;1.60;99.90;;;;;;2034472;29;20114;-70
2023/01/30 03:47:57;;;;;;;19.85;12.70;;;1.60;99.90;;;;;;2036553;29;20088;-70
2023/01/30 03:48:58;;;;;;;21.02;13.20;;;1.70;99.90;;;;;;2044788;29;20502;-70
2023/01/30 03:49:59;;;;;;;19.48;12.25;;;1.70;99.90;;;;;;2043095;28;20301;-71
2023/01/30 03:50:59;;;;;;;18.48;11.68;;;1.70;99.90;;;;;;2038365;28;20027;-70
2023/01/30 03:52:00;;;;;;;18.60;12.02;;;1.70;99.90;;;;;;2042736;28;20020;-70
2023/01/30 03:53:00;;;;;;;19.40;12.25;;;1.80;99.90;;;;;;2048627;28;20059;-70
2023/01/30 03:54:02;;;;;;;19.20;12.35;;;1.80;99.90;;;;;;2029900;29;20032;-70
2023/01/30 03:55:03;;;;;;;19.27;12.40;;;1.80;99.90;;;;;;2034555;29;20222;-71
2023/01/30 03:56:04;;;;;;;17.58;11.95;;;1.80;99.90;;;;;;2042357;28;20091;-70
2023/01/30 03:57:07;;;;;;;20.17;12.63;;;1.90;99.90;;;;;;2042552;29;20109;-70
2023/01/30 03:58:08;;;;;;;19.17;12.48;;;1.90;99.90;;;;;;2044656;29;20094;-69
2023/01/30 03:59:09;;;;;;;19.65;12.20;;;1.90;99.90;;;;;;2031942;29;20137;-70
2023/01/30 04:00:15;;;;;;;18.70;12.00;;;1.90;99.90;;;;;;2035511;29;20334;-70
2023/01/30 04:01:22;;;;;;;18.80;12.13;;;1.90;99.90;;;;;;2042345;28;20037;-70
2023/01/30 04:02:24;;;;;;;19.00;12.48;;;1.90;99.90;;;;;;2043358;28;20038;-70
2023/01/30 04:03:26;;;;;;;19.48;12.70;;;1.90;99.90;;;;;;2034164;29;20028;-70
2023/01/30 04:04:30;;;;;;;19.58;12.38;;;2.00;99.90;;;;;;2022591;29;20036;-70
2023/01/30 04:05:31;;;;;;;18.75;12.13;;;2.00;99.90;;;;;;2036520;29;20057;-70
2023/01/30 04:06:37;;;;;;;20.35;12.57;;;2.00;99.90;;;;;;2028485;29;20047;-71
2023/01/30 04:07:38;;;;;;;20.67;12.95;;;2.00;99.90;;;;;;2034712;29;20839;-69
2023/01/30 04:08:39;;;;;;;19.45;12.93;;;2.00;99.90;;;;;;2042339;28;20070;-69
2023/01/30 04:09:41;;;;;;;21.73;13.07;;;2.00;99.90;;;;;;2040826;29;20039;-70
2023/01/30 04:10:42;;;;;;;19.98;12.77;;;2.00;99.90;;;;;;2042239;28;20315;-69
2023/01/30 04:11:42;;;;;;;19.17;12.05;;;2.10;99.90;;;;;;2044436;28;20035;-70
2023/01/30 04:12:43;;;;;;;19.67;13.05;;;2.10;99.90;;;;;;2042186;28;20175;-69
2023/01/30 04:13:44;;;;;;;20.20;12.82;;;2.10;99.90;;;;;;2042166;28;20062;-70
2023/01/30 04:14:45;;;;;;;19.20;12.18;;;2.10;99.90;;;;;;2038682;29;20582;-70
2023/01/30 04:16:19;;;;;;;19.02;12.27;;;2.10;99.90;;;;;;2042186;29;20021;-69
2023/01/30 04:17:38;;;;;;;20.65;12.07;;;2.10;99.90;;;;;;2041698;28;20027;-70
2023/01/30 04:19:05;;;;;;;19.27;12.48;;;2.10;99.90;;;;;;2034296;29;20095;-70
2023/01/30 04:20:07;;;;;;;19.27;12.05;;;2.10;99.90;;;;;;2025584;29;20139;-70
2023/01/30 04:21:11;;;;;;;20.70;12.70;;;2.10;99.90;;;;;;2023555;29;20543;-69
2023/01/30 04:22:13;;;;;;;19.65;13.10;;;2.10;99.90;;;;;;2034537;29;20511;-70
2023/01/30 04:23:13;;;;;;;19.42;12.85;;;2.10;99.90;;;;;;2044230;28;20110;-70
2023/01/30 04:24:14;;;;;;;21.58;13.23;;;2.10;99.90;;;;;;2034561;29;20115;-70
2023/01/30 04:25:14;;;;;;;21.30;13.02;;;2.10;99.90;;;;;;2034254;29;20505;-71
2023/01/30 04:26:16;;;;;;;18.98;12.57;;;2.10;99.90;;;;;;2037785;28;20408;-70
2023/01/30 04:27:16;;;;;;;18.67;12.80;;;2.10;99.90;;;;;;2043920;29;20042;-69
2023/01/30 04:28:35;;;;;;;20.20;12.68;;;2.10;99.90;;;;;;2029617;29;20032;-70
2023/01/30 04:29:36;;;;;;;20.52;13.43;;;2.10;99.90;;;;;;2036161;29;20028;-69
2023/01/30 04:30:40;;;;;;;20.95;13.25;;;2.10;99.90;;;;;;2031509;29;20039;-70
2023/01/30 04:32:00;;;;;;;;;;;2.10;99.90;;;;;;2034679;29;20095;-70
2023/01/30 04:33:06;;;;;;;20.33;12.50;;;2.10;99.90;;;;;;2042187;28;19922;-70
2023/01/30 04:34:06;;;;;;;19.95;12.38;;;2.10;99.90;;;;;;2044293;29;20398;-70
2023/01/30 04:35:09;;;;;;;19.80;12.80;;;2.00;99.90;;;;;;2042750;28;20016;-71
2023/01/30 04:36:10;;;;;;;21.85;13.15;;;2.00;99.90;;;;;;2043919;28;20114;-70
2023/01/30 04:37:11;;;;;;;20.83;12.93;;;2.00;99.90;;;;;;2036439;29;20264;-70
2023/01/30 04:38:12;;;;;;;23.65;13.15;;;2.10;99.90;;;;;;2036020;29;20024;-70
2023/01/30 04:39:12;;;;;;;20.40;12.90;;;2.10;99.90;;;;;;2041708;28;20031;-71
2023/01/30 04:40:14;;;;;;;21.38;12.68;;;2.10;99.90;;;;;;2042216;28;20038;-71
2023/01/30 04:41:40;;;;;;;19.55;13.07;;;2.20;99.90;;;;;;2034082;29;20032;-70
2023/01/30 04:42:41;;;;;;;20.63;12.95;;;2.20;99.90;;;;;;2035556;29;20019;-70
2023/01/30 04:44:01;;;;;;;19.88;13.10;;;2.20;99.90;;;;;;2040392;29;20043;-69
2023/01/30 04:45:34;;;;;;;19.27;12.48;;;2.20;99.90;;;;;;2033732;29;20035;-71
2023/01/30 04:46:35;;;;;;;20.35;12.52;;;2.20;99.90;;;;;;2042093;28;20023;-71
2023/01/30 04:47:35;;;;;;;18.73;12.50;;;2.20;99.90;;;;;;2042137;28;20061;-70
2023/01/30 04:48:36;;;;;;;20.15;12.77;;;2.30;99.90;;;;;;2043697;28;20034;-69
2023/01/30 04:49:37;;;;;;;21.55;13.40;;;2.30;99.90;;;;;;2042075;29;20058;-70
2023/01/30 04:50:42;;;;;;;18.30;12.57;;;2.30;99.90;;;;;;2044035;28;20438;-70
2023/01/30 04:51:42;;;;;;;18.10;12.27;;;2.30;99.90;;;;;;2044047;28;20034;-69
2023/01/30 04:52:43;;;;;;;20.77;12.45;;;2.30;99.90;;;;;;2041605;28;20055;-70
2023/01/30 04:53:45;;;;;;;18.50;12.10;;;2.30;99.90;;;;;;2033270;29;20035;-70
2023/01/30 04:54:45;;;;;;;18.27;12.20;;;2.30;99.90;;;;;;2033965;29;20959;-70
2023/01/30 04:55:47;;;;;;;19.67;12.73;;;2.40;99.90;;;;;;2041495;28;20590;-69
2023/01/30 04:56:47;;;;;;;19.23;12.60;;;2.40;99.90;;;;;;2039359;29;20034;-69
2023/01/30 04:57:48;;;;;;;19.33;12.80;;;2.40;99.90;;;;;;2039422;29;20063;-69
2023/01/30 04:58:48;;;;;;;21.63;12.68;;;2.40;99.90;;;;;;2033470;29;20035;-69
2023/01/30 04:59:49;;;;;;;21.50;13.00;;;2.40;99.90;;;;;;2038402;29;20026;-69
2023/01/30 05:00:52;;;;;;;19.52;12.73;;;2.40;99.90;;;;;;2033936;29;20040;-70
2023/01/30 05:01:53;;;;;;;19.20;12.90;;;2.50;99.90;;;;;;2036263;29;20035;-69
2023/01/30 05:02:54;;;;;;;19.63;12.63;;;2.50;99.90;;;;;;2041966;29;20035;-70
2023/01/30 05:03:55;;;;;;;18.75;12.65;;;2.50;99.90;;;;;;2033958;29;20027;-70
2023/01/30 05:04:55;;;;;;;22.13;13.15;;;2.50;99.90;;;;;;2034195;29;20126;-70
2023/01/30 05:05:56;;;;;;;19.98;13.05;;;2.50;99.90;;;;;;2044812;29;20497;-70
2023/01/30 05:06:57;;;;;;;19.27;13.13;;;2.50;99.90;;;;;;2042473;29;20034;-70
2023/01/30 05:07:57;;;;;;;21.05;12.68;;;2.50;99.90;;;;;;2042537;28;20027;-71
2023/01/30 05:08:58;;;;;;;20.00;12.68;;;2.50;99.90;;;;;;2042459;28;20043;-69
2023/01/30 05:09:59;;;;;;;19.95;13.20;;;2.50;99.90;;;;;;2044417;28;20023;-71
2023/01/30 05:10:59;;;;;;;19.85;12.93;;;2.60;99.90;;;;;;2042589;28;20613;-69
2023/01/30 05:12:00;;;;;;;20.10;13.20;;;2.60;99.90;;;;;;2042727;29;20732;-70
2023/01/30 05:13:02;;;;;;;19.17;12.98;;;2.60;99.90;;;;;;2042692;29;20024;-70
2023/01/30 05:14:02;;;;;;;20.42;13.38;;;2.60;99.90;;;;;;2042492;28;20031;-69
2023/01/30 05:15:03;;;;;;;20.20;13.00;;;2.60;99.90;;;;;;2044080;29;20052;-70
2023/01/30 05:16:04;;;;;;;19.63;12.85;;;2.60;99.90;;;;;;2042301;29;20443;-69
2023/01/30 05:17:05;;;;;;;18.92;13.02;;;2.60;99.90;;;;;;2041900;29;20113;-69
2023/01/30 05:18:05;;;;;;;24.85;15.93;;;2.60;99.90;;;;;;2042701;28;20028;-70
2023/01/30 05:19:06;;;;;;;20.73;13.73;;;2.60;99.90;;;;;;2043941;29;20071;-71
2023/01/30 05:20:09;;;;;;;21.27;13.23;;;2.60;99.90;;;;;;2042277;29;20058;-71
2023/01/30 05:21:15;;;;;;;20.33;12.32;;;2.70;99.90;;;;;;2042633;29;20126;-70
2023/01/30 05:22:15;;;;;;;19.25;12.30;;;2.70;99.90;;;;;;2033935;29;20115;-70
2023/01/30 05:23:16;;;;;;;20.25;13.40;;;2.70;99.90;;;;;;2033948;29;20391;-69
2023/01/30 05:24:16;;;;;;;20.02;12.90;;;2.70;99.90;;;;;;2044816;28;20063;-71
2023/01/30 05:25:17;;;;;;;18.92;12.45;;;2.70;99.90;;;;;;2042455;29;20330;-70
2023/01/30 05:26:18;;;;;;;19.85;13.05;;;2.70;99.90;;;;;;2042354;29;20038;-69
2023/01/30 05:27:18;;;;;;;20.05;12.77;;;2.70;99.90;;;;;;2033554;29;20265;-69
2023/01/30 05:28:19;;;;;;;21.27;13.25;;;2.70;99.90;;;;;;2033757;29;20028;-68
2023/01/30 05:29:19;;;;;;;21.25;12.93;;;2.70;99.90;;;;;;2039770;28;20128;-69
2023/01/30 05:30:20;;;;;;;22.27;13.82;;;2.70;99.90;;;;;;2038216;28;20039;-69
2023/01/30 05:31:21;;;;;;;20.30;13.10;;;2.70;99.90;;;;;;2041452;28;20028;-69
2023/01/30 05:32:21;;;;;;;18.88;12.82;;;2.70;99.90;;;;;;2033817;29;20044;-70
2023/01/30 05:33:22;;;;;;;19.85;12.75;;;2.70;99.90;;;;;;2034094;29;20115;-70
2023/01/30 05:34:23;;;;;;;20.38;12.65;;;2.70;99.90;;;;;;2044423;28;20372;-69
2023/01/30 05:35:23;;;;;;;19.58;12.73;;;2.70;99.90;;;;;;2042129;29;20601;-69
2023/01/30 05:36:24;;;;;;;21.30;13.30;;;2.70;99.90;;;;;;2041748;28;20040;-69
2023/01/30 05:37:24;;;;;;;18.50;12.23;;;2.70;99.90;;;;;;2041628;28;20023;-69
2023/01/30 05:38:26;;;;;;;19.13;13.02;;;2.70;99.90;;;;;;2044352;29;20407;-70
2023/01/30 05:39:26;;;;;;;20.10;13.13;;;2.80;99.90;;;;;;2042233;29;20042;-71
2023/01/30 05:40:27;;;;;;;18.70;12.50;;;2.80;99.90;;;;;;2042359;28;20092;-70
2023/01/30 05:41:27;;;;;;;21.42;13.50;;;2.70;99.90;;;;;;2042328;29;20043;-70
2023/01/30 05:42:28;;;;;;;21.55;13.93;;;2.80;99.90;;;;;;2043256;28;20047;-70